FCN587 MSLP-MTPP
Flight info
| Callsign | FCN587 |
|---|---|
| Flight time | 2h 30m |
| Altitude | 33000 |
| Route | VITAN2W VITAN UA754 TNT DCT CRUTA/N0467F340 DCT EMASA DCT KEBET/N0462F350 DCT OVAMA DCT PP999 PP9991C |
| Aircraft | A321/M-SDE3FGHIRWY/LB1 |
Departure
| Time | 2026-04-16 22:20 |
|---|---|
| Airport | El Salvador International Airport Saint Óscar Arnulfo Romero y Galdámez (MSLP) |
Arrival
| Time | 2026-04-17 00:51 |
|---|---|
| Airport | Toussaint Louverture International Airport (MTPP) |
| Time | Latitude | Longitude | Altitude | Speed | Heading |
|---|---|---|---|---|---|
| 2026-04-16 22:00 | 13.44381 | -89.05803 | 92 ft | 0 kts | 341° |
| 2026-04-16 22:08 | 13.44372 | -89.05800 | 91 ft | 3 kts | 341° |
| 2026-04-16 22:08 | 13.44353 | -89.05793 | 91 ft | 3 kts | 341° |
| 2026-04-16 22:08 | 13.44334 | -89.05787 | 90 ft | 3 kts | 342° |
| 2026-04-16 22:09 | 13.44315 | -89.05781 | 90 ft | 3 kts | 356° |
| 2026-04-16 22:09 | 13.44298 | -89.05783 | 91 ft | 3 kts | 47° |
| 2026-04-16 22:09 | 13.44293 | -89.05791 | 92 ft | 2 kts | 70° |
| 2026-04-16 22:09 | 13.44287 | -89.05808 | 91 ft | 2 kts | 70° |
| 2026-04-16 22:10 | 13.44286 | -89.05812 | 91 ft | 2 kts | 70° |
| 2026-04-16 22:12 | 13.44286 | -89.05811 | 91 ft | 1 kts | 70° |
| 2026-04-16 22:12 | 13.44300 | -89.05773 | 91 ft | 8 kts | 69° |
| 2026-04-16 22:13 | 13.44316 | -89.05727 | 93 ft | 6 kts | 69° |
| 2026-04-16 22:13 | 13.44333 | -89.05681 | 92 ft | 10 kts | 69° |
| 2026-04-16 22:13 | 13.44360 | -89.05606 | 92 ft | 11 kts | 70° |
| 2026-04-16 22:13 | 13.44383 | -89.05541 | 93 ft | 9 kts | 70° |
| 2026-04-16 22:14 | 13.44402 | -89.05488 | 92 ft | 7 kts | 68° |
| 2026-04-16 22:14 | 13.44416 | -89.05441 | 94 ft | 9 kts | 85° |
| 2026-04-16 22:14 | 13.44379 | -89.05383 | 92 ft | 10 kts | 139° |
| 2026-04-16 22:14 | 13.44370 | -89.05326 | 92 ft | 7 kts | 79° |
| 2026-04-16 22:15 | 13.44383 | -89.05283 | 93 ft | 7 kts | 70° |
| 2026-04-16 22:15 | 13.44412 | -89.05201 | 94 ft | 15 kts | 69° |
| 2026-04-16 22:15 | 13.44448 | -89.05104 | 95 ft | 14 kts | 70° |
| 2026-04-16 22:15 | 13.44478 | -89.05019 | 95 ft | 13 kts | 70° |
| 2026-04-16 22:16 | 13.44518 | -89.04909 | 93 ft | 18 kts | 70° |
| 2026-04-16 22:16 | 13.44560 | -89.04794 | 95 ft | 16 kts | 70° |
| 2026-04-16 22:16 | 13.44597 | -89.04690 | 92 ft | 15 kts | 69° |
| 2026-04-16 22:16 | 13.44630 | -89.04599 | 94 ft | 13 kts | 70° |
| 2026-04-16 22:17 | 13.44657 | -89.04520 | 93 ft | 11 kts | 70° |
| 2026-04-16 22:17 | 13.44686 | -89.04436 | 94 ft | 16 kts | 70° |
| 2026-04-16 22:17 | 13.44723 | -89.04332 | 93 ft | 15 kts | 70° |
| 2026-04-16 22:17 | 13.44714 | -89.04246 | 95 ft | 11 kts | 141° |
| 2026-04-16 22:18 | 13.44658 | -89.04221 | 99 ft | 6 kts | 162° |
| 2026-04-16 22:18 | 13.44622 | -89.04210 | 99 ft | 7 kts | 165° |
| 2026-04-16 22:18 | 13.44588 | -89.04212 | 101 ft | 4 kts | 205° |
| 2026-04-16 22:18 | 13.44561 | -89.04257 | 100 ft | 9 kts | 249° |
| 2026-04-16 22:19 | 13.44557 | -89.04266 | 99 ft | 0 kts | 249° |
| 2026-04-16 22:19 | 13.44555 | -89.04272 | 102 ft | 5 kts | 250° |
| 2026-04-16 22:19 | 13.44464 | -89.04529 | 101 ft | 72 kts | 250° |
| 2026-04-16 22:19 | 13.44223 | -89.05204 | 94 ft | 127 kts | 250° |
| 2026-04-16 22:20 | 13.43867 | -89.06198 | 94 ft | 168 kts | 250° |
| 2026-04-16 22:20 | 13.43455 | -89.07366 | 533 ft | 174 kts | 251° |
| 2026-04-16 22:20 | 13.43039 | -89.08533 | 1061 ft | 175 kts | 248° |
| 2026-04-16 22:20 | 13.42619 | -89.09694 | 1667 ft | 172 kts | 246° |
| 2026-04-16 22:21 | 13.42183 | -89.10859 | 2133 ft | 179 kts | 244° |
| 2026-04-16 22:21 | 13.41559 | -89.12027 | 2385 ft | 196 kts | 234° |
| 2026-04-16 22:21 | 13.40667 | -89.13150 | 2552 ft | 214 kts | 225° |
| 2026-04-16 22:21 | 13.39482 | -89.14210 | 2693 ft | 239 kts | 215° |
| 2026-04-16 22:22 | 13.37981 | -89.15098 | 2978 ft | 258 kts | 204° |
| 2026-04-16 22:22 | 13.36244 | -89.15668 | 3430 ft | 266 kts | 191° |
| 2026-04-16 22:22 | 13.34378 | -89.15843 | 3882 ft | 274 kts | 178° |
| 2026-04-16 22:22 | 13.32476 | -89.15579 | 4351 ft | 279 kts | 163° |
| 2026-04-16 22:23 | 13.30659 | -89.14847 | 4848 ft | 282 kts | 154° |
| 2026-04-16 22:23 | 13.29049 | -89.13695 | 5406 ft | 283 kts | 135° |
| 2026-04-16 22:23 | 13.27740 | -89.12194 | 5946 ft | 283 kts | 121° |
| 2026-04-16 22:23 | 13.26810 | -89.10419 | 6470 ft | 283 kts | 107° |
| 2026-04-16 22:24 | 13.26305 | -89.08479 | 7013 ft | 281 kts | 94° |
| 2026-04-16 22:24 | 13.26251 | -89.06488 | 7560 ft | 279 kts | 81° |
| 2026-04-16 22:24 | 13.26645 | -89.04546 | 8109 ft | 278 kts | 68° |
| 2026-04-16 22:24 | 13.27441 | -89.02771 | 8659 ft | 278 kts | 59° |
| 2026-04-16 22:25 | 13.28394 | -89.01008 | 9227 ft | 280 kts | 59° |
| 2026-04-16 22:25 | 13.29327 | -88.99281 | 9795 ft | 281 kts | 59° |
| 2026-04-16 22:25 | 13.30281 | -88.97511 | 10222 ft | 288 kts | 59° |
| 2026-04-16 22:25 | 13.31279 | -88.95660 | 10339 ft | 305 kts | 59° |
| 2026-04-16 22:26 | 13.32335 | -88.93697 | 10459 ft | 322 kts | 59° |
| 2026-04-16 22:26 | 13.33445 | -88.91633 | 10560 ft | 338 kts | 59° |
| 2026-04-16 22:26 | 13.34609 | -88.89473 | 10714 ft | 352 kts | 60° |
| 2026-04-16 22:26 | 13.35807 | -88.87255 | 11090 ft | 358 kts | 60° |
| 2026-04-16 22:27 | 13.37013 | -88.85010 | 11542 ft | 361 kts | 60° |
| 2026-04-16 22:27 | 13.38227 | -88.82743 | 12012 ft | 363 kts | 60° |
| 2026-04-16 22:27 | 13.39447 | -88.80460 | 12452 ft | 366 kts | 60° |
| 2026-04-16 22:27 | 13.40659 | -88.78188 | 12888 ft | 369 kts | 60° |
| 2026-04-16 22:28 | 13.41914 | -88.75837 | 13317 ft | 372 kts | 60° |
| 2026-04-16 22:28 | 13.43151 | -88.73532 | 13736 ft | 374 kts | 61° |
| 2026-04-16 22:28 | 13.44416 | -88.71185 | 14096 ft | 377 kts | 60° |
| 2026-04-16 22:28 | 13.45685 | -88.68826 | 14476 ft | 379 kts | 60° |
| 2026-04-16 22:29 | 13.46961 | -88.66449 | 14840 ft | 381 kts | 60° |
| 2026-04-16 22:29 | 13.48241 | -88.64056 | 15211 ft | 383 kts | 61° |
| 2026-04-16 22:29 | 13.49527 | -88.61648 | 15572 ft | 385 kts | 61° |
| 2026-04-16 22:29 | 13.50815 | -88.59237 | 15966 ft | 385 kts | 61° |
| 2026-04-16 22:30 | 13.52111 | -88.56817 | 16311 ft | 387 kts | 61° |
| 2026-04-16 22:30 | 13.53349 | -88.54354 | 16682 ft | 389 kts | 66° |
| 2026-04-16 22:30 | 13.54410 | -88.51794 | 16990 ft | 392 kts | 66° |
| 2026-04-16 22:30 | 13.55478 | -88.49211 | 17342 ft | 393 kts | 66° |
| 2026-04-16 22:31 | 13.56555 | -88.46621 | 17618 ft | 396 kts | 66° |
| 2026-04-16 22:31 | 13.57644 | -88.44012 | 17884 ft | 399 kts | 66° |
| 2026-04-16 22:31 | 13.58740 | -88.41385 | 18174 ft | 401 kts | 66° |
| 2026-04-16 22:31 | 13.59844 | -88.38751 | 18438 ft | 403 kts | 66° |
| 2026-04-16 22:32 | 13.60940 | -88.36134 | 18709 ft | 404 kts | 66° |
| 2026-04-16 22:32 | 13.62053 | -88.33476 | 18985 ft | 406 kts | 66° |
| 2026-04-16 22:32 | 13.63168 | -88.30804 | 19248 ft | 407 kts | 66° |
| 2026-04-16 22:32 | 13.64285 | -88.28122 | 19540 ft | 409 kts | 66° |
| 2026-04-16 22:33 | 13.65408 | -88.25429 | 19805 ft | 410 kts | 65° |
| 2026-04-16 22:33 | 13.66533 | -88.22727 | 20062 ft | 412 kts | 65° |
| 2026-04-16 22:33 | 13.67661 | -88.20018 | 20325 ft | 413 kts | 65° |
| 2026-04-16 22:33 | 13.68797 | -88.17289 | 20575 ft | 415 kts | 65° |
| 2026-04-16 22:34 | 13.69935 | -88.14554 | 20847 ft | 416 kts | 65° |
| 2026-04-16 22:34 | 13.71074 | -88.11818 | 21170 ft | 418 kts | 65° |
| 2026-04-16 22:34 | 13.72205 | -88.09099 | 21432 ft | 419 kts | 65° |
| 2026-04-16 22:34 | 13.73353 | -88.06341 | 21717 ft | 420 kts | 65° |
| 2026-04-16 22:35 | 13.74501 | -88.03572 | 21996 ft | 422 kts | 65° |
| 2026-04-16 22:35 | 13.75652 | -88.00787 | 22277 ft | 423 kts | 65° |
| 2026-04-16 22:35 | 13.76806 | -87.98003 | 22544 ft | 424 kts | 65° |
| 2026-04-16 22:35 | 13.77970 | -87.95204 | 22839 ft | 426 kts | 65° |
| 2026-04-16 22:36 | 13.79140 | -87.92394 | 23097 ft | 428 kts | 65° |
| 2026-04-16 22:36 | 13.80310 | -87.89577 | 23353 ft | 429 kts | 65° |
| 2026-04-16 22:36 | 13.81482 | -87.86753 | 23552 ft | 431 kts | 65° |
| 2026-04-16 22:36 | 13.82659 | -87.83914 | 23782 ft | 432 kts | 65° |
| 2026-04-16 22:37 | 13.83834 | -87.81067 | 23972 ft | 433 kts | 65° |
| 2026-04-16 22:37 | 13.84999 | -87.78244 | 24158 ft | 435 kts | 65° |
| 2026-04-16 22:37 | 13.86181 | -87.75375 | 24348 ft | 436 kts | 66° |
| 2026-04-16 22:37 | 13.87171 | -87.72416 | 24511 ft | 439 kts | 70° |
| 2026-04-16 22:38 | 13.88103 | -87.69421 | 24736 ft | 440 kts | 70° |
| 2026-04-16 22:38 | 13.89039 | -87.66414 | 24926 ft | 442 kts | 70° |
| 2026-04-16 22:38 | 13.89978 | -87.63404 | 25109 ft | 443 kts | 70° |
| 2026-04-16 22:38 | 13.90930 | -87.60384 | 25307 ft | 444 kts | 70° |
| 2026-04-16 22:39 | 13.91897 | -87.57356 | 25532 ft | 445 kts | 69° |
| 2026-04-16 22:39 | 13.92871 | -87.54328 | 25752 ft | 447 kts | 69° |
| 2026-04-16 22:39 | 13.93851 | -87.51295 | 25940 ft | 448 kts | 69° |
| 2026-04-16 22:39 | 13.94832 | -87.48246 | 26134 ft | 449 kts | 69° |
| 2026-04-16 22:40 | 13.95800 | -87.45223 | 26302 ft | 451 kts | 69° |
| 2026-04-16 22:40 | 13.96779 | -87.42154 | 26495 ft | 452 kts | 69° |
| 2026-04-16 22:40 | 13.97757 | -87.39076 | 26672 ft | 453 kts | 69° |
| 2026-04-16 22:40 | 13.98736 | -87.35991 | 26837 ft | 454 kts | 69° |
| 2026-04-16 22:41 | 13.99720 | -87.32894 | 27007 ft | 455 kts | 69° |
| 2026-04-16 22:41 | 14.00708 | -87.29789 | 27189 ft | 456 kts | 69° |
| 2026-04-16 22:41 | 14.01697 | -87.26687 | 27356 ft | 457 kts | 69° |
| 2026-04-16 22:41 | 14.02687 | -87.23574 | 27539 ft | 458 kts | 69° |
| 2026-04-16 22:42 | 14.03667 | -87.20443 | 27707 ft | 459 kts | 70° |
| 2026-04-16 22:42 | 14.04613 | -87.17300 | 27863 ft | 461 kts | 70° |
| 2026-04-16 22:42 | 14.05538 | -87.14134 | 28024 ft | 462 kts | 71° |
| 2026-04-16 22:42 | 14.06440 | -87.11005 | 28185 ft | 463 kts | 71° |
| 2026-04-16 22:43 | 14.07359 | -87.07824 | 28354 ft | 463 kts | 71° |
| 2026-04-16 22:43 | 14.08284 | -87.04645 | 28587 ft | 462 kts | 70° |
| 2026-04-16 22:43 | 14.09213 | -87.01476 | 28795 ft | 462 kts | 70° |
| 2026-04-16 22:43 | 14.10144 | -86.98314 | 29031 ft | 461 kts | 70° |
| 2026-04-16 22:44 | 14.11077 | -86.95151 | 29239 ft | 461 kts | 70° |
| 2026-04-16 22:44 | 14.12009 | -86.91995 | 29460 ft | 460 kts | 70° |
| 2026-04-16 22:44 | 14.12939 | -86.88840 | 29682 ft | 460 kts | 70° |
| 2026-04-16 22:44 | 14.13864 | -86.85690 | 29905 ft | 459 kts | 70° |
| 2026-04-16 22:45 | 14.14787 | -86.82547 | 30110 ft | 459 kts | 70° |
| 2026-04-16 22:45 | 14.15697 | -86.79443 | 30249 ft | 459 kts | 70° |
| 2026-04-16 22:45 | 14.16622 | -86.76300 | 30419 ft | 459 kts | 70° |
| 2026-04-16 22:45 | 14.17547 | -86.73157 | 30581 ft | 459 kts | 70° |
| 2026-04-16 22:46 | 14.18472 | -86.70007 | 30737 ft | 460 kts | 70° |
| 2026-04-16 22:46 | 14.19397 | -86.66843 | 30921 ft | 460 kts | 70° |
| 2026-04-16 22:46 | 14.21242 | -86.60513 | 31144 ft | 463 kts | 70° |
| 2026-04-16 22:47 | 14.22170 | -86.57334 | 31294 ft | 464 kts | 70° |
| 2026-04-16 22:47 | 14.23100 | -86.54147 | 31497 ft | 463 kts | 70° |
| 2026-04-16 22:47 | 14.24027 | -86.50969 | 31700 ft | 463 kts | 70° |
| 2026-04-16 22:47 | 14.24955 | -86.47797 | 31860 ft | 463 kts | 69° |
| 2026-04-16 22:48 | 14.25882 | -86.44622 | 32028 ft | 463 kts | 70° |
| 2026-04-16 22:48 | 14.26794 | -86.41482 | 32212 ft | 464 kts | 70° |
| 2026-04-16 22:48 | 14.27721 | -86.38294 | 32379 ft | 464 kts | 70° |
| 2026-04-16 22:48 | 14.28648 | -86.35110 | 32563 ft | 465 kts | 69° |
| 2026-04-16 22:49 | 14.29578 | -86.31920 | 32732 ft | 465 kts | 70° |
| 2026-04-16 22:49 | 14.30506 | -86.28727 | 32906 ft | 465 kts | 69° |
| 2026-04-16 22:49 | 14.32362 | -86.22353 | 32950 ft | 463 kts | 69° |
| 2026-04-16 22:50 | 14.34212 | -86.15993 | 32950 ft | 462 kts | 69° |
| 2026-04-16 22:50 | 14.36050 | -86.09657 | 32950 ft | 461 kts | 70° |
| 2026-04-16 22:51 | 14.37893 | -86.03320 | 32953 ft | 461 kts | 69° |
| 2026-04-16 22:51 | 14.39718 | -85.97034 | 32950 ft | 461 kts | 69° |
| 2026-04-16 22:52 | 14.41545 | -85.90700 | 32948 ft | 460 kts | 69° |
| 2026-04-16 22:52 | 14.43369 | -85.84371 | 32948 ft | 460 kts | 70° |
| 2026-04-16 22:53 | 14.45192 | -85.78037 | 32949 ft | 460 kts | 70° |
| 2026-04-16 22:53 | 14.47012 | -85.71706 | 32957 ft | 460 kts | 70° |
| 2026-04-16 22:54 | 14.48843 | -85.65367 | 32962 ft | 461 kts | 69° |
| 2026-04-16 22:54 | 14.50656 | -85.59086 | 32960 ft | 460 kts | 69° |
| 2026-04-16 22:55 | 14.52481 | -85.52748 | 32951 ft | 460 kts | 69° |
| 2026-04-16 22:55 | 14.54300 | -85.46408 | 32953 ft | 461 kts | 70° |
| 2026-04-16 22:56 | 14.56107 | -85.40065 | 32961 ft | 461 kts | 69° |
| 2026-04-16 22:56 | 14.57920 | -85.33715 | 32961 ft | 461 kts | 70° |
| 2026-04-16 22:57 | 14.59738 | -85.27369 | 32953 ft | 461 kts | 69° |
| 2026-04-16 22:57 | 14.61547 | -85.21069 | 32959 ft | 461 kts | 69° |
| 2026-04-16 22:58 | 14.63366 | -85.14716 | 32961 ft | 461 kts | 70° |
| 2026-04-16 22:58 | 14.65168 | -85.08366 | 32961 ft | 461 kts | 70° |
| 2026-04-16 22:59 | 14.66973 | -85.02017 | 32959 ft | 461 kts | 69° |
| 2026-04-16 22:59 | 14.68780 | -84.95665 | 32953 ft | 461 kts | 69° |
| 2026-04-16 23:00 | 14.70572 | -84.89365 | 32953 ft | 461 kts | 69° |
| 2026-04-16 23:00 | 14.72383 | -84.83012 | 32953 ft | 461 kts | 69° |
| 2026-04-16 23:01 | 14.74178 | -84.76661 | 32947 ft | 461 kts | 70° |
| 2026-04-16 23:01 | 14.75975 | -84.70307 | 32945 ft | 460 kts | 70° |
| 2026-04-16 23:02 | 14.77768 | -84.63959 | 32942 ft | 460 kts | 69° |
| 2026-04-16 23:02 | 14.79560 | -84.57621 | 32939 ft | 460 kts | 69° |
| 2026-04-16 23:03 | 14.81336 | -84.51324 | 32936 ft | 460 kts | 69° |
| 2026-04-16 23:03 | 14.83122 | -84.44977 | 32936 ft | 460 kts | 69° |
| 2026-04-16 23:04 | 14.84915 | -84.38630 | 32936 ft | 460 kts | 69° |
| 2026-04-16 23:04 | 14.86702 | -84.32280 | 32935 ft | 460 kts | 69° |
| 2026-04-16 23:05 | 14.88488 | -84.25930 | 32942 ft | 460 kts | 69° |
| 2026-04-16 23:05 | 14.90259 | -84.19621 | 32943 ft | 460 kts | 69° |
| 2026-04-16 23:06 | 14.92041 | -84.13275 | 32933 ft | 459 kts | 69° |
| 2026-04-16 23:06 | 14.93816 | -84.06926 | 32937 ft | 459 kts | 69° |
| 2026-04-16 23:07 | 14.95582 | -84.00578 | 32937 ft | 459 kts | 69° |
| 2026-04-16 23:07 | 14.97361 | -83.94236 | 32931 ft | 459 kts | 69° |
| 2026-04-16 23:08 | 14.99141 | -83.87892 | 32938 ft | 459 kts | 69° |
| 2026-04-16 23:08 | 15.00891 | -83.81592 | 32938 ft | 459 kts | 69° |
| 2026-04-16 23:09 | 15.02643 | -83.75250 | 32934 ft | 458 kts | 69° |
| 2026-04-16 23:09 | 15.04411 | -83.68914 | 32934 ft | 458 kts | 69° |
| 2026-04-16 23:10 | 15.06174 | -83.62576 | 32934 ft | 458 kts | 69° |
| 2026-04-16 23:10 | 15.07922 | -83.56236 | 32936 ft | 458 kts | 69° |
| 2026-04-16 23:11 | 15.09684 | -83.49900 | 32941 ft | 458 kts | 69° |
| 2026-04-16 23:11 | 15.11429 | -83.43607 | 32945 ft | 458 kts | 69° |
| 2026-04-16 23:12 | 15.13183 | -83.37272 | 32952 ft | 458 kts | 69° |
| 2026-04-16 23:12 | 15.14931 | -83.30940 | 32951 ft | 458 kts | 69° |
| 2026-04-16 23:13 | 15.16670 | -83.24600 | 32955 ft | 458 kts | 69° |
| 2026-04-16 23:13 | 15.18408 | -83.18270 | 32954 ft | 457 kts | 69° |
| 2026-04-16 23:14 | 15.20159 | -83.11940 | 32963 ft | 457 kts | 69° |
| 2026-04-16 23:14 | 15.21906 | -83.05609 | 32961 ft | 457 kts | 69° |
| 2026-04-16 23:15 | 15.24487 | -82.96155 | 32956 ft | 457 kts | 69° |
| 2026-04-16 23:16 | 15.26333 | -82.89871 | 32960 ft | 455 kts | 66° |
| 2026-04-16 23:16 | 15.28528 | -82.83744 | 32956 ft | 453 kts | 64° |
| 2026-04-16 23:17 | 15.30812 | -82.77661 | 32961 ft | 453 kts | 64° |
| 2026-04-16 23:17 | 15.33025 | -82.71548 | 32961 ft | 453 kts | 65° |
| 2026-04-16 23:18 | 15.35180 | -82.65405 | 32954 ft | 453 kts | 65° |
| 2026-04-16 23:18 | 15.37314 | -82.59302 | 32954 ft | 453 kts | 65° |
| 2026-04-16 23:19 | 15.39469 | -82.53171 | 32956 ft | 453 kts | 65° |
| 2026-04-16 23:19 | 15.41629 | -82.47027 | 32956 ft | 453 kts | 65° |
| 2026-04-16 23:20 | 15.43788 | -82.40892 | 32956 ft | 453 kts | 65° |
| 2026-04-16 23:20 | 15.45947 | -82.34752 | 32961 ft | 453 kts | 65° |
| 2026-04-16 23:21 | 15.48107 | -82.28618 | 32959 ft | 453 kts | 65° |
| 2026-04-16 23:21 | 15.50254 | -82.22474 | 32957 ft | 453 kts | 65° |
| 2026-04-16 23:22 | 15.52394 | -82.16337 | 32962 ft | 453 kts | 65° |
| 2026-04-16 23:22 | 15.54537 | -82.10232 | 32957 ft | 453 kts | 65° |
| 2026-04-16 23:23 | 15.56687 | -82.04091 | 32956 ft | 453 kts | 65° |
| 2026-04-16 23:23 | 15.58828 | -81.97938 | 32957 ft | 453 kts | 65° |
| 2026-04-16 23:24 | 15.60973 | -81.91800 | 32957 ft | 453 kts | 65° |
| 2026-04-16 23:24 | 15.63123 | -81.85645 | 32956 ft | 453 kts | 65° |
| 2026-04-16 23:25 | 15.65248 | -81.79535 | 32959 ft | 453 kts | 65° |
| 2026-04-16 23:25 | 15.67381 | -81.73381 | 32959 ft | 453 kts | 65° |
| 2026-04-16 23:26 | 15.69516 | -81.67224 | 32958 ft | 453 kts | 65° |
| 2026-04-16 23:26 | 15.71654 | -81.61063 | 32963 ft | 453 kts | 65° |
| 2026-04-16 23:27 | 15.73427 | -81.55954 | 32966 ft | 454 kts | 65° |
| 2026-04-16 23:27 | 15.75565 | -81.49791 | 32968 ft | 453 kts | 65° |
| 2026-04-16 23:28 | 15.78041 | -81.42633 | 32962 ft | 453 kts | 65° |
| 2026-04-16 23:28 | 15.79809 | -81.37514 | 32964 ft | 453 kts | 65° |
| 2026-04-16 23:29 | 15.81936 | -81.31355 | 32962 ft | 453 kts | 65° |
| 2026-04-16 23:29 | 15.84068 | -81.25197 | 32974 ft | 453 kts | 65° |
| 2026-04-16 23:30 | 15.86193 | -81.19033 | 32975 ft | 453 kts | 65° |
| 2026-04-16 23:30 | 15.88308 | -81.12872 | 32975 ft | 452 kts | 65° |
| 2026-04-16 23:31 | 15.90426 | -81.06723 | 32970 ft | 452 kts | 65° |
| 2026-04-16 23:31 | 15.92530 | -81.00619 | 32968 ft | 452 kts | 65° |
| 2026-04-16 23:32 | 15.94636 | -80.94472 | 32968 ft | 451 kts | 65° |
| 2026-04-16 23:32 | 15.96735 | -80.88327 | 32977 ft | 451 kts | 65° |
| 2026-04-16 23:33 | 15.98839 | -80.82199 | 32972 ft | 450 kts | 65° |
| 2026-04-16 23:33 | 16.00961 | -80.76082 | 32969 ft | 449 kts | 64° |
| 2026-04-16 23:34 | 16.03256 | -80.70114 | 32973 ft | 447 kts | 62° |
| 2026-04-16 23:34 | 16.05637 | -80.64146 | 32961 ft | 447 kts | 63° |
| 2026-04-16 23:35 | 16.07984 | -80.58168 | 32955 ft | 447 kts | 63° |
| 2026-04-16 23:35 | 16.10296 | -80.52156 | 32981 ft | 447 kts | 63° |
| 2026-04-16 23:36 | 16.12592 | -80.46150 | 32980 ft | 447 kts | 63° |
| 2026-04-16 23:36 | 16.14894 | -80.40149 | 32973 ft | 446 kts | 63° |
| 2026-04-16 23:37 | 16.17179 | -80.34202 | 32973 ft | 446 kts | 63° |
| 2026-04-16 23:37 | 16.19477 | -80.28216 | 32975 ft | 446 kts | 63° |
| 2026-04-16 23:38 | 16.21773 | -80.22228 | 32967 ft | 446 kts | 63° |
| 2026-04-16 23:38 | 16.24066 | -80.16231 | 32976 ft | 446 kts | 63° |
| 2026-04-16 23:39 | 16.26348 | -80.10234 | 32981 ft | 446 kts | 63° |
| 2026-04-16 23:39 | 16.28620 | -80.04284 | 32980 ft | 445 kts | 63° |
| 2026-04-16 23:40 | 16.30915 | -79.98298 | 32983 ft | 445 kts | 63° |
| 2026-04-16 23:40 | 16.33199 | -79.92310 | 32987 ft | 445 kts | 63° |
| 2026-04-16 23:41 | 16.35485 | -79.86324 | 32981 ft | 445 kts | 63° |
| 2026-04-16 23:41 | 16.37770 | -79.80330 | 32978 ft | 445 kts | 63° |
| 2026-04-16 23:42 | 16.40032 | -79.74385 | 32987 ft | 445 kts | 63° |
| 2026-04-16 23:42 | 16.42304 | -79.68398 | 32986 ft | 444 kts | 63° |
| 2026-04-16 23:43 | 16.44568 | -79.62421 | 32982 ft | 444 kts | 63° |
| 2026-04-16 23:43 | 16.46836 | -79.56443 | 32974 ft | 443 kts | 63° |
| 2026-04-16 23:44 | 16.49095 | -79.50471 | 32978 ft | 443 kts | 63° |
| 2026-04-16 23:44 | 16.51358 | -79.44493 | 32976 ft | 443 kts | 63° |
| 2026-04-16 23:45 | 16.53603 | -79.38562 | 32985 ft | 443 kts | 63° |
| 2026-04-16 23:45 | 16.55864 | -79.32584 | 32981 ft | 443 kts | 63° |
| 2026-04-16 23:46 | 16.58116 | -79.26602 | 32978 ft | 443 kts | 63° |
| 2026-04-16 23:46 | 16.60365 | -79.20621 | 32975 ft | 443 kts | 63° |
| 2026-04-16 23:47 | 16.62617 | -79.14647 | 32971 ft | 443 kts | 63° |
| 2026-04-16 23:47 | 16.64868 | -79.08668 | 32969 ft | 443 kts | 63° |
| 2026-04-16 23:48 | 16.67103 | -79.02730 | 32978 ft | 443 kts | 63° |
| 2026-04-16 23:48 | 16.69348 | -78.96764 | 32970 ft | 442 kts | 63° |
| 2026-04-16 23:49 | 16.71589 | -78.90787 | 32968 ft | 442 kts | 64° |
| 2026-04-16 23:49 | 16.73823 | -78.84811 | 32966 ft | 442 kts | 64° |
| 2026-04-16 23:50 | 16.76058 | -78.78837 | 32965 ft | 442 kts | 64° |
| 2026-04-16 23:50 | 16.78292 | -78.72864 | 32964 ft | 442 kts | 64° |
| 2026-04-16 23:51 | 16.80525 | -78.66897 | 32983 ft | 442 kts | 64° |
| 2026-04-16 23:51 | 16.82743 | -78.60957 | 32988 ft | 442 kts | 64° |
| 2026-04-16 23:52 | 16.84967 | -78.54984 | 32979 ft | 441 kts | 64° |
| 2026-04-16 23:52 | 16.87189 | -78.49018 | 32978 ft | 441 kts | 64° |
| 2026-04-16 23:53 | 16.89409 | -78.43053 | 32978 ft | 441 kts | 64° |
| 2026-04-16 23:53 | 16.91629 | -78.37081 | 32976 ft | 441 kts | 64° |
| 2026-04-16 23:54 | 16.93842 | -78.31116 | 32978 ft | 441 kts | 64° |
| 2026-04-16 23:54 | 16.96056 | -78.25144 | 32969 ft | 441 kts | 64° |
| 2026-04-16 23:55 | 16.98251 | -78.19220 | 32973 ft | 440 kts | 64° |
| 2026-04-16 23:55 | 17.00468 | -78.13250 | 32975 ft | 441 kts | 64° |
| 2026-04-16 23:56 | 17.02670 | -78.07277 | 32970 ft | 441 kts | 64° |
| 2026-04-16 23:56 | 17.04870 | -78.01307 | 32979 ft | 440 kts | 64° |
| 2026-04-16 23:57 | 17.07071 | -77.95332 | 32989 ft | 440 kts | 64° |
| 2026-04-16 23:57 | 17.09271 | -77.89371 | 32994 ft | 439 kts | 64° |
| 2026-04-16 23:58 | 17.11446 | -77.83466 | 32987 ft | 438 kts | 64° |
| 2026-04-16 23:58 | 17.13636 | -77.77525 | 32990 ft | 438 kts | 64° |
| 2026-04-16 23:59 | 17.15827 | -77.71587 | 32971 ft | 438 kts | 64° |
| 2026-04-16 23:59 | 17.18007 | -77.65649 | 32979 ft | 437 kts | 64° |
| 2026-04-17 00:00 | 17.20189 | -77.59716 | 32965 ft | 437 kts | 64° |
| 2026-04-17 00:00 | 17.22344 | -77.53815 | 32992 ft | 437 kts | 64° |
| 2026-04-17 00:01 | 17.24513 | -77.47889 | 32998 ft | 436 kts | 64° |
| 2026-04-17 00:01 | 17.26675 | -77.41971 | 32993 ft | 435 kts | 64° |
| 2026-04-17 00:02 | 17.28834 | -77.36058 | 32977 ft | 435 kts | 64° |
| 2026-04-17 00:02 | 17.30992 | -77.30146 | 32975 ft | 435 kts | 64° |
| 2026-04-17 00:03 | 17.33130 | -77.24265 | 32973 ft | 435 kts | 64° |
| 2026-04-17 00:03 | 17.35281 | -77.18356 | 32987 ft | 434 kts | 64° |
| 2026-04-17 00:04 | 17.37433 | -77.12455 | 32983 ft | 433 kts | 64° |
| 2026-04-17 00:04 | 17.39571 | -77.06571 | 32973 ft | 433 kts | 64° |
| 2026-04-17 00:05 | 17.41702 | -77.00678 | 32970 ft | 432 kts | 64° |
| 2026-04-17 00:05 | 17.43830 | -76.94794 | 32968 ft | 432 kts | 64° |
| 2026-04-17 00:06 | 17.45950 | -76.88947 | 32961 ft | 432 kts | 64° |
| 2026-04-17 00:06 | 17.48079 | -76.83066 | 32962 ft | 432 kts | 64° |
| 2026-04-17 00:07 | 17.50208 | -76.77178 | 32959 ft | 432 kts | 64° |
| 2026-04-17 00:07 | 17.52339 | -76.71286 | 32953 ft | 432 kts | 64° |
| 2026-04-17 00:08 | 17.54468 | -76.65395 | 32948 ft | 433 kts | 64° |
| 2026-04-17 00:08 | 17.56581 | -76.59532 | 32952 ft | 433 kts | 64° |
| 2026-04-17 00:09 | 17.58704 | -76.53626 | 32955 ft | 433 kts | 64° |
| 2026-04-17 00:09 | 17.60827 | -76.47713 | 32973 ft | 434 kts | 64° |
| 2026-04-17 00:10 | 17.62952 | -76.41795 | 32962 ft | 434 kts | 64° |
| 2026-04-17 00:10 | 17.65078 | -76.35871 | 32967 ft | 434 kts | 64° |
| 2026-04-17 00:11 | 17.67206 | -76.29938 | 32967 ft | 435 kts | 64° |
| 2026-04-17 00:11 | 17.69331 | -76.24006 | 32970 ft | 435 kts | 64° |
| 2026-04-17 00:12 | 17.71455 | -76.18065 | 32977 ft | 435 kts | 64° |
| 2026-04-17 00:12 | 17.73566 | -76.12164 | 32987 ft | 435 kts | 64° |
| 2026-04-17 00:13 | 17.75694 | -76.06217 | 32982 ft | 436 kts | 64° |
| 2026-04-17 00:13 | 17.77824 | -76.00254 | 32975 ft | 436 kts | 64° |
| 2026-04-17 00:14 | 17.79945 | -75.94284 | 32974 ft | 437 kts | 64° |
| 2026-04-17 00:14 | 17.82070 | -75.88307 | 32978 ft | 437 kts | 64° |
| 2026-04-17 00:15 | 17.84202 | -75.82327 | 32981 ft | 437 kts | 64° |
| 2026-04-17 00:15 | 17.86310 | -75.76383 | 32996 ft | 438 kts | 65° |
| 2026-04-17 00:16 | 17.88430 | -75.70384 | 32983 ft | 439 kts | 65° |
| 2026-04-17 00:16 | 17.90551 | -75.64383 | 32989 ft | 439 kts | 65° |
| 2026-04-17 00:17 | 17.92677 | -75.58380 | 32992 ft | 438 kts | 65° |
| 2026-04-17 00:17 | 17.94798 | -75.52390 | 32993 ft | 438 kts | 65° |
| 2026-04-17 00:18 | 17.96913 | -75.46400 | 32992 ft | 437 kts | 65° |
| 2026-04-17 00:18 | 17.99031 | -75.40412 | 33007 ft | 437 kts | 65° |
| 2026-04-17 00:19 | 18.01127 | -75.34456 | 33001 ft | 438 kts | 65° |
| 2026-04-17 00:19 | 18.03234 | -75.28459 | 32993 ft | 438 kts | 65° |
| 2026-04-17 00:20 | 18.05351 | -75.22457 | 32997 ft | 438 kts | 65° |
| 2026-04-17 00:20 | 18.07459 | -75.16450 | 32992 ft | 438 kts | 65° |
| 2026-04-17 00:21 | 18.09563 | -75.10437 | 32992 ft | 438 kts | 65° |
| 2026-04-17 00:21 | 18.11651 | -75.04466 | 33005 ft | 439 kts | 65° |
| 2026-04-17 00:22 | 18.14815 | -74.95426 | 32992 ft | 439 kts | 65° |
| 2026-04-17 00:22 | 18.16923 | -74.89399 | 32992 ft | 440 kts | 65° |
| 2026-04-17 00:23 | 18.19031 | -74.83361 | 32998 ft | 439 kts | 65° |
| 2026-04-17 00:23 | 18.21137 | -74.77331 | 33005 ft | 439 kts | 65° |
| 2026-04-17 00:24 | 18.23209 | -74.71348 | 33001 ft | 438 kts | 65° |
| 2026-04-17 00:24 | 18.25121 | -74.65245 | 32680 ft | 442 kts | 74° |
| 2026-04-17 00:25 | 18.25630 | -74.62043 | 32433 ft | 445 kts | 76° |
| 2026-04-17 00:25 | 18.26110 | -74.58827 | 32188 ft | 446 kts | 76° |
| 2026-04-17 00:25 | 18.26596 | -74.55603 | 31945 ft | 446 kts | 76° |
| 2026-04-17 00:25 | 18.27085 | -74.52372 | 31704 ft | 447 kts | 76° |
| 2026-04-17 00:26 | 18.27573 | -74.49138 | 31475 ft | 448 kts | 77° |
| 2026-04-17 00:26 | 18.28059 | -74.45901 | 31239 ft | 449 kts | 77° |
| 2026-04-17 00:26 | 18.28545 | -74.42651 | 31005 ft | 450 kts | 77° |
| 2026-04-17 00:26 | 18.29023 | -74.39444 | 30774 ft | 451 kts | 77° |
| 2026-04-17 00:27 | 18.29508 | -74.36187 | 30541 ft | 451 kts | 77° |
| 2026-04-17 00:27 | 18.29997 | -74.32915 | 30330 ft | 453 kts | 77° |
| 2026-04-17 00:27 | 18.30485 | -74.29639 | 30102 ft | 453 kts | 77° |
| 2026-04-17 00:27 | 18.30973 | -74.26371 | 29837 ft | 452 kts | 77° |
| 2026-04-17 00:28 | 18.31457 | -74.23112 | 29560 ft | 450 kts | 77° |
| 2026-04-17 00:28 | 18.31940 | -74.19862 | 29306 ft | 448 kts | 78° |
| 2026-04-17 00:28 | 18.32415 | -74.16629 | 29052 ft | 446 kts | 78° |
| 2026-04-17 00:28 | 18.32887 | -74.13409 | 28779 ft | 444 kts | 78° |
| 2026-04-17 00:29 | 18.33357 | -74.10204 | 28519 ft | 442 kts | 78° |
| 2026-04-17 00:29 | 18.33821 | -74.07054 | 28269 ft | 441 kts | 78° |
| 2026-04-17 00:29 | 18.34290 | -74.03877 | 28012 ft | 439 kts | 78° |
| 2026-04-17 00:29 | 18.34754 | -74.00711 | 27753 ft | 437 kts | 78° |
| 2026-04-17 00:30 | 18.35216 | -73.97553 | 27507 ft | 436 kts | 78° |
| 2026-04-17 00:30 | 18.35674 | -73.94398 | 27264 ft | 435 kts | 78° |
| 2026-04-17 00:30 | 18.36117 | -73.91262 | 26794 ft | 432 kts | 79° |
| 2026-04-17 00:30 | 18.36543 | -73.88146 | 26222 ft | 429 kts | 79° |
| 2026-04-17 00:31 | 18.36958 | -73.85042 | 25657 ft | 427 kts | 79° |
| 2026-04-17 00:31 | 18.37365 | -73.81955 | 25086 ft | 423 kts | 79° |
| 2026-04-17 00:31 | 18.37765 | -73.78925 | 24534 ft | 415 kts | 79° |
| 2026-04-17 00:31 | 18.38166 | -73.75931 | 24019 ft | 412 kts | 79° |
| 2026-04-17 00:32 | 18.38568 | -73.72956 | 23477 ft | 410 kts | 79° |
| 2026-04-17 00:32 | 18.38964 | -73.70039 | 22946 ft | 405 kts | 79° |
| 2026-04-17 00:32 | 18.39357 | -73.67124 | 22463 ft | 399 kts | 79° |
| 2026-04-17 00:32 | 18.39741 | -73.64253 | 22027 ft | 393 kts | 79° |
| 2026-04-17 00:33 | 18.40121 | -73.61426 | 21572 ft | 388 kts | 79° |
| 2026-04-17 00:33 | 18.40495 | -73.58631 | 21149 ft | 382 kts | 79° |
| 2026-04-17 00:33 | 18.40863 | -73.55880 | 20725 ft | 378 kts | 79° |
| 2026-04-17 00:33 | 18.41230 | -73.53154 | 20296 ft | 374 kts | 79° |
| 2026-04-17 00:34 | 18.41595 | -73.50456 | 19872 ft | 371 kts | 79° |
| 2026-04-17 00:34 | 18.41954 | -73.47782 | 19443 ft | 368 kts | 79° |
| 2026-04-17 00:34 | 18.42310 | -73.45126 | 19028 ft | 365 kts | 79° |
| 2026-04-17 00:34 | 18.42662 | -73.42493 | 18589 ft | 363 kts | 79° |
| 2026-04-17 00:35 | 18.43010 | -73.39866 | 18113 ft | 362 kts | 79° |
| 2026-04-17 00:35 | 18.43359 | -73.37248 | 17646 ft | 359 kts | 80° |
| 2026-04-17 00:35 | 18.43699 | -73.34690 | 17211 ft | 356 kts | 80° |
| 2026-04-17 00:35 | 18.44039 | -73.32115 | 16771 ft | 354 kts | 80° |
| 2026-04-17 00:36 | 18.44377 | -73.29558 | 16335 ft | 351 kts | 80° |
| 2026-04-17 00:36 | 18.44712 | -73.27015 | 15900 ft | 349 kts | 80° |
| 2026-04-17 00:36 | 18.45045 | -73.24493 | 15471 ft | 347 kts | 80° |
| 2026-04-17 00:36 | 18.45380 | -73.21980 | 15039 ft | 346 kts | 80° |
| 2026-04-17 00:37 | 18.45715 | -73.19480 | 14610 ft | 344 kts | 80° |
| 2026-04-17 00:37 | 18.46049 | -73.16983 | 14183 ft | 344 kts | 81° |
| 2026-04-17 00:37 | 18.46379 | -73.14494 | 13746 ft | 343 kts | 81° |
| 2026-04-17 00:37 | 18.46706 | -73.12007 | 13278 ft | 342 kts | 81° |
| 2026-04-17 00:38 | 18.47031 | -73.09534 | 12854 ft | 340 kts | 81° |
| 2026-04-17 00:38 | 18.47476 | -73.07104 | 12409 ft | 337 kts | 72° |
| 2026-04-17 00:38 | 18.48144 | -73.04783 | 11982 ft | 335 kts | 72° |
| 2026-04-17 00:38 | 18.48813 | -73.02442 | 11550 ft | 333 kts | 72° |
| 2026-04-17 00:39 | 18.49477 | -73.00108 | 11110 ft | 332 kts | 72° |
| 2026-04-17 00:39 | 18.50135 | -72.97786 | 10667 ft | 330 kts | 72° |
| 2026-04-17 00:39 | 18.50774 | -72.95528 | 10475 ft | 312 kts | 72° |
| 2026-04-17 00:39 | 18.51379 | -72.93393 | 10207 ft | 298 kts | 72° |
| 2026-04-17 00:40 | 18.51969 | -72.91311 | 9932 ft | 294 kts | 72° |
| 2026-04-17 00:40 | 18.52549 | -72.89261 | 9821 ft | 292 kts | 72° |
| 2026-04-17 00:40 | 18.53128 | -72.87215 | 9678 ft | 291 kts | 72° |
| 2026-04-17 00:40 | 18.53703 | -72.85176 | 9516 ft | 291 kts | 72° |
| 2026-04-17 00:41 | 18.54278 | -72.83138 | 9088 ft | 288 kts | 72° |
| 2026-04-17 00:41 | 18.54851 | -72.81115 | 8640 ft | 288 kts | 72° |
| 2026-04-17 00:41 | 18.55425 | -72.79090 | 8192 ft | 289 kts | 73° |
| 2026-04-17 00:41 | 18.55985 | -72.77100 | 7783 ft | 286 kts | 73° |
| 2026-04-17 00:42 | 18.56544 | -72.75110 | 7294 ft | 281 kts | 73° |
| 2026-04-17 00:42 | 18.57091 | -72.73171 | 7100 ft | 268 kts | 73° |
| 2026-04-17 00:42 | 18.57604 | -72.71348 | 6976 ft | 251 kts | 73° |
| 2026-04-17 00:42 | 18.58084 | -72.69644 | 6899 ft | 235 kts | 73° |
| 2026-04-17 00:43 | 18.58658 | -72.68075 | 6767 ft | 223 kts | 67° |
| 2026-04-17 00:43 | 18.59244 | -72.66606 | 6642 ft | 212 kts | 67° |
| 2026-04-17 00:43 | 18.59799 | -72.65202 | 6479 ft | 204 kts | 67° |
| 2026-04-17 00:43 | 18.60339 | -72.63827 | 6200 ft | 202 kts | 67° |
| 2026-04-17 00:44 | 18.60734 | -72.62412 | 5902 ft | 202 kts | 81° |
| 2026-04-17 00:44 | 18.60794 | -72.60939 | 5603 ft | 201 kts | 94° |
| 2026-04-17 00:44 | 18.60526 | -72.59497 | 5312 ft | 201 kts | 107° |
| 2026-04-17 00:44 | 18.59960 | -72.58151 | 5031 ft | 201 kts | 115° |
| 2026-04-17 00:45 | 18.59322 | -72.56840 | 4746 ft | 201 kts | 115° |
| 2026-04-17 00:45 | 18.58696 | -72.55548 | 4458 ft | 200 kts | 115° |
| 2026-04-17 00:45 | 18.58064 | -72.54243 | 4175 ft | 200 kts | 115° |
| 2026-04-17 00:45 | 18.57436 | -72.52941 | 3883 ft | 199 kts | 115° |
| 2026-04-17 00:46 | 18.56968 | -72.51576 | 3508 ft | 197 kts | 99° |
| 2026-04-17 00:46 | 18.56941 | -72.50161 | 3203 ft | 189 kts | 88° |
| 2026-04-17 00:46 | 18.57009 | -72.48835 | 3056 ft | 172 kts | 88° |
| 2026-04-17 00:46 | 18.57069 | -72.47629 | 3003 ft | 160 kts | 89° |
| 2026-04-17 00:47 | 18.57128 | -72.46475 | 2941 ft | 157 kts | 89° |
| 2026-04-17 00:47 | 18.57186 | -72.45324 | 2801 ft | 157 kts | 89° |
| 2026-04-17 00:47 | 18.57245 | -72.44170 | 2601 ft | 158 kts | 88° |
| 2026-04-17 00:47 | 18.57304 | -72.43014 | 2372 ft | 157 kts | 88° |
| 2026-04-17 00:48 | 18.57363 | -72.41864 | 2158 ft | 157 kts | 87° |
| 2026-04-17 00:48 | 18.57421 | -72.40736 | 1936 ft | 155 kts | 86° |
| 2026-04-17 00:48 | 18.57479 | -72.39602 | 1720 ft | 154 kts | 85° |
| 2026-04-17 00:48 | 18.57536 | -72.38478 | 1517 ft | 153 kts | 85° |
| 2026-04-17 00:49 | 18.57593 | -72.37358 | 1311 ft | 153 kts | 85° |
| 2026-04-17 00:49 | 18.57650 | -72.36239 | 1108 ft | 153 kts | 85° |
| 2026-04-17 00:49 | 18.57706 | -72.35128 | 924 ft | 152 kts | 86° |
| 2026-04-17 00:49 | 18.57762 | -72.34029 | 738 ft | 149 kts | 88° |
| 2026-04-17 00:50 | 18.57821 | -72.32947 | 531 ft | 148 kts | 87° |
| 2026-04-17 00:50 | 18.57881 | -72.31871 | 357 ft | 146 kts | 89° |
| 2026-04-17 00:50 | 18.57934 | -72.30805 | 142 ft | 144 kts | 88° |
| 2026-04-17 00:50 | 18.57978 | -72.29794 | 93 ft | 122 kts | 88° |
| 2026-04-17 00:51 | 18.58013 | -72.29123 | 99 ft | 63 kts | 85° |
| 2026-04-17 00:51 | 18.58031 | -72.28762 | 106 ft | 39 kts | 89° |
| 2026-04-17 00:51 | 18.58035 | -72.28556 | 110 ft | 18 kts | 84° |
| 2026-04-17 00:51 | 18.57995 | -72.28498 | 111 ft | 0 kts | 162° |
| 2026-04-17 00:52 | 18.57974 | -72.28494 | 111 ft | 11 kts | 174° |
| 2026-04-17 00:52 | 18.57880 | -72.28489 | 110 ft | 13 kts | 175° |
| 2026-04-17 00:53 | 18.57810 | -72.28484 | 110 ft | 7 kts | 177° |
| 2026-04-17 00:53 | 18.57777 | -72.28483 | 110 ft | 2 kts | 178° |
| 2026-04-17 00:53 | 18.57774 | -72.28483 | 110 ft | 0 kts | 178° |